Time;durP1;ratioP1;P1;durP2;ratioP2;P2;SDS_P1;SDS_P2;PMS_P1;PMS_P2;Temp;Humidity;BMP_temperature;BMP_pressure;BME280_temperature;BME280_humidity;BME280_pressure;Samples;Min_cycle;Max_cycle;Signal;HPM_P1;HPM_P2
2021/08/30 00:01:37;;;;;;;13.25;9.07;;;17.70;99.90;;;;;;4108945;28;20042;-74
2021/08/30 00:03:38;;;;;;;14.25;9.05;;;17.70;99.90;;;;;;4108887;28;20186;-74
2021/08/30 00:05:38;;;;;;;17.42;10.85;;;17.70;99.90;;;;;;4108395;28;20384;-74
2021/08/30 00:07:39;;;;;;;14.88;9.13;;;17.70;99.90;;;;;;4109862;28;20027;-73
2021/08/30 00:09:41;;;;;;;13.40;8.52;;;17.70;99.90;;;;;;4106405;28;20183;-74
2021/08/30 00:11:42;;;;;;;11.93;8.70;;;17.70;99.90;;;;;;4109834;28;20046;-73
2021/08/30 00:13:42;;;;;;;11.90;8.38;;;17.60;99.90;;;;;;4109500;28;20118;-73
2021/08/30 00:15:43;;;;;;;14.43;9.25;;;17.60;99.90;;;;;;4110021;28;20035;-74
2021/08/30 00:17:45;;;;;;;14.60;9.30;;;17.70;99.90;;;;;;4110000;28;20113;-74
2021/08/30 00:19:46;;;;;;;17.65;9.27;;;17.60;99.90;;;;;;4108849;28;20129;-73
2021/08/30 00:21:47;;;;;;;14.65;9.30;;;17.60;99.90;;;;;;4109975;28;20392;-74
2021/08/30 00:23:47;;;;;;;13.60;8.88;;;17.60;99.90;;;;;;4137047;28;20035;-74
2021/08/30 00:25:48;;;;;;;12.52;8.77;;;17.60;99.90;;;;;;4108118;28;20038;-74
2021/08/30 00:27:48;;;;;;;18.98;8.80;;;17.60;99.90;;;;;;4109929;28;20063;-74
2021/08/30 00:29:49;;;;;;;11.73;8.25;;;17.60;99.90;;;;;;4108445;28;20054;-73
2021/08/30 00:31:50;;;;;;;12.85;8.68;;;17.60;99.90;;;;;;4115375;28;20124;-74
2021/08/30 00:33:51;;;;;;;12.20;8.38;;;17.60;99.90;;;;;;4099689;28;20035;-74
2021/08/30 00:35:52;;;;;;;13.68;9.15;;;17.60;99.90;;;;;;4104835;28;20476;-73
2021/08/30 00:37:52;;;;;;;13.13;9.18;;;17.60;99.90;;;;;;4093719;28;20035;-73
2021/08/30 00:39:53;;;;;;;13.05;8.90;;;17.60;99.90;;;;;;4104595;28;20034;-73
2021/08/30 00:41:58;;;;;;;15.30;9.10;;;17.60;99.90;;;;;;4109577;28;20113;-74
2021/08/30 00:43:58;;;;;;;13.65;8.85;;;17.60;99.90;;;;;;4106718;28;20553;-73
2021/08/30 00:46:00;;;;;;;14.82;8.98;;;17.60;99.90;;;;;;4109748;28;20047;-74
2021/08/30 00:48:01;;;;;;;15.60;9.80;;;17.60;99.90;;;;;;4109139;28;20755;-74
2021/08/30 00:50:02;;;;;;;12.18;8.88;;;17.60;99.90;;;;;;4108924;28;20059;-73
2021/08/30 00:52:03;;;;;;;17.42;10.63;;;17.60;99.90;;;;;;4109498;28;20109;-73
2021/08/30 00:54:04;;;;;;;12.82;8.60;;;17.60;99.90;;;;;;4106187;28;20043;-73
2021/08/30 00:56:05;;;;;;;16.88;10.07;;;17.60;99.90;;;;;;4105331;28;20043;-74
2021/08/30 00:58:06;;;;;;;15.35;10.85;;;17.50;99.90;;;;;;4109238;28;20043;-73
2021/08/30 01:00:07;;;;;;;16.45;9.68;;;17.50;99.90;;;;;;4108934;28;20074;-73
2021/08/30 01:02:10;;;;;;;16.70;10.50;;;17.50;99.90;;;;;;4109414;28;20115;-73
2021/08/30 01:04:13;;;;;;;17.63;10.15;;;17.40;99.90;;;;;;4106618;28;20526;-73
2021/08/30 01:06:36;;;;;;;18.58;10.70;;;17.40;99.90;;;;;;4105911;28;20055;-73
2021/08/30 01:08:45;;;;;;;17.42;11.48;;;17.40;99.90;;;;;;4108489;28;20043;-73
2021/08/30 01:10:53;;;;;;;14.68;9.75;;;17.40;99.90;;;;;;4132554;28;20046;-73
2021/08/30 01:12:58;;;;;;;16.75;11.13;;;17.40;99.90;;;;;;4107683;28;20790;-73
2021/08/30 01:15:14;;;;;;;15.90;10.43;;;17.40;99.90;;;;;;4107499;28;20503;-74
2021/08/30 01:17:20;;;;;;;15.70;10.35;;;17.40;99.90;;;;;;4113960;28;20038;-73
2021/08/30 01:19:34;;;;;;;14.73;10.40;;;17.40;99.90;;;;;;4107207;28;20564;-73
2021/08/30 01:21:38;;;;;;;15.85;10.00;;;17.40;99.90;;;;;;4109319;28;20043;-74
2021/08/30 01:23:40;;;;;;;15.32;10.45;;;17.30;99.90;;;;;;4108828;28;20173;-74
2021/08/30 01:25:41;;;;;;;15.88;10.45;;;17.40;99.90;;;;;;4107801;28;20114;-73
2021/08/30 01:27:43;;;;;;;17.05;10.68;;;17.30;99.90;;;;;;4105368;28;20423;-73
2021/08/30 01:30:07;;;;;;;;;;;17.30;99.90;;;;;;4104688;28;20546;-73
2021/08/30 01:32:25;;;;;;;15.48;9.63;;;17.30;99.90;;;;;;4099147;28;19918;-73
2021/08/30 01:34:28;;;;;;;16.55;10.25;;;17.20;99.90;;;;;;4136438;28;20046;-74
2021/08/30 01:36:30;;;;;;;15.48;10.05;;;17.30;99.90;;;;;;4109449;28;20039;-73
2021/08/30 01:38:31;;;;;;;16.98;10.68;;;17.30;99.90;;;;;;4108998;28;20075;-73
2021/08/30 01:40:35;;;;;;;14.85;10.80;;;17.30;99.90;;;;;;4108137;28;20057;-74
2021/08/30 01:42:40;;;;;;;15.43;10.20;;;17.30;99.90;;;;;;4109138;28;20046;-73
2021/08/30 01:44:40;;;;;;;15.38;10.05;;;17.30;99.90;;;;;;4108739;28;20070;-74
2021/08/30 01:46:42;;;;;;;16.65;10.73;;;17.30;99.90;;;;;;4105769;28;20035;-73
2021/08/30 01:48:50;;;;;;;14.88;9.90;;;17.30;99.90;;;;;;4109151;28;20035;-73
2021/08/30 01:50:51;;;;;;;13.75;10.10;;;17.30;99.90;;;;;;4134996;28;20041;-73
2021/08/30 01:52:54;;;;;;;15.90;11.48;;;17.30;99.90;;;;;;4109309;28;20042;-73
2021/08/30 01:54:55;;;;;;;14.00;9.18;;;17.30;99.90;;;;;;4108771;28;20034;-73
2021/08/30 01:56:58;;;;;;;14.57;10.55;;;17.30;99.90;;;;;;4108174;28;20113;-73
2021/08/30 02:01:20;;;;;;;14.13;9.63;;;17.30;99.90;;;;;;4105322;28;20502;-73
2021/08/30 02:03:26;;;;;;;13.35;9.57;;;17.30;99.90;;;;;;4120376;28;20039;-73
2021/08/30 02:05:26;;;;;;;14.23;9.27;;;17.40;99.90;;;;;;4108659;28;20046;-73
2021/08/30 02:07:27;;;;;;;14.20;8.82;;;17.40;99.90;;;;;;4094183;28;20051;-73
2021/08/30 02:09:28;;;;;;;16.30;9.00;;;17.30;99.90;;;;;;4092364;28;20079;-73
2021/08/30 02:11:33;;;;;;;12.63;8.82;;;17.40;99.90;;;;;;4091729;28;20031;-73
2021/08/30 02:13:34;;;;;;;13.52;9.77;;;17.40;99.90;;;;;;4108284;28;20039;-73
2021/08/30 02:15:34;;;;;;;14.35;10.18;;;17.40;99.90;;;;;;4106368;28;20050;-73
2021/08/30 02:17:36;;;;;;;14.73;9.13;;;17.40;99.90;;;;;;4120277;28;20055;-73
2021/08/30 02:19:55;;;;;;;12.10;8.50;;;17.40;99.90;;;;;;4103883;28;20780;-73
2021/08/30 02:21:59;;;;;;;12.52;8.48;;;17.40;99.90;;;;;;4101200;28;20672;-73
2021/08/30 02:24:29;;;;;;;12.60;9.10;;;17.40;99.90;;;;;;4105969;28;20034;-74
2021/08/30 02:26:36;;;;;;;12.18;9.15;;;17.40;99.90;;;;;;4095256;28;20045;-73
2021/08/30 02:28:39;;;;;;;16.08;9.48;;;17.40;99.90;;;;;;4100179;28;20039;-73
2021/08/30 02:30:40;;;;;;;12.93;9.20;;;17.40;99.90;;;;;;4101441;28;20122;-73
2021/08/30 02:32:43;;;;;;;13.95;9.05;;;17.40;99.90;;;;;;4100657;28;20648;-73
2021/08/30 02:34:56;;;;;;;13.98;9.23;;;17.40;99.90;;;;;;4102111;28;20093;-73
2021/08/30 02:36:59;;;;;;;12.85;9.05;;;17.40;99.90;;;;;;4101494;28;20042;-73
2021/08/30 02:39:01;;;;;;;16.77;9.07;;;17.40;99.90;;;;;;4102131;28;20098;-73
2021/08/30 02:41:03;;;;;;;12.80;9.20;;;17.40;99.90;;;;;;4104383;28;20042;-73
2021/08/30 02:43:04;;;;;;;13.75;10.00;;;17.40;99.90;;;;;;4104283;28;20038;-73
2021/08/30 02:45:08;;;;;;;13.93;9.30;;;17.30;99.90;;;;;;4104620;28;20035;-73
2021/08/30 02:47:10;;;;;;;12.05;8.40;;;17.30;99.90;;;;;;4108552;28;20058;-73
2021/08/30 02:49:12;;;;;;;15.02;9.20;;;17.30;99.90;;;;;;4102392;28;20129;-73
2021/08/30 02:51:13;;;;;;;16.63;9.60;;;17.30;99.90;;;;;;4102914;28;20042;-73
2021/08/30 02:53:14;;;;;;;15.15;9.60;;;17.30;99.90;;;;;;4108954;28;20634;-73
2021/08/30 02:55:14;;;;;;;14.02;9.13;;;17.40;99.90;;;;;;4103257;28;20121;-73
2021/08/30 02:57:16;;;;;;;13.05;8.95;;;17.40;99.90;;;;;;4099598;28;20047;-73
2021/08/30 02:59:18;;;;;;;22.95;9.85;;;17.40;99.90;;;;;;4102776;28;20035;-73
2021/08/30 03:01:19;;;;;;;13.60;8.93;;;17.30;99.90;;;;;;4104585;28;20460;-74
2021/08/30 03:03:20;;;;;;;13.55;9.13;;;17.30;99.90;;;;;;4105003;28;20043;-74
2021/08/30 03:05:21;;;;;;;14.68;9.18;;;17.30;99.90;;;;;;4109084;28;20054;-73
2021/08/30 03:07:27;;;;;;;14.00;9.38;;;17.30;99.90;;;;;;4105687;28;20058;-73
2021/08/30 03:09:28;;;;;;;18.58;10.55;;;17.30;99.90;;;;;;4132153;28;20209;-73
2021/08/30 03:11:29;;;;;;;12.15;8.57;;;17.30;99.90;;;;;;4108282;28;20039;-73
2021/08/30 03:13:30;;;;;;;15.88;9.65;;;17.30;99.90;;;;;;4105469;28;20047;-73
2021/08/30 03:15:33;;;;;;;23.45;8.45;;;17.20;99.90;;;;;;4104178;28;20043;-73
2021/08/30 03:17:37;;;;;;;13.90;9.05;;;17.30;99.90;;;;;;4130269;28;20034;-73
2021/08/30 03:19:45;;;;;;;13.57;8.60;;;17.30;99.90;;;;;;4103610;28;20035;-73
2021/08/30 03:21:48;;;;;;;12.57;8.40;;;17.30;99.90;;;;;;4100992;28;20114;-73
2021/08/30 03:23:51;;;;;;;13.15;8.75;;;17.30;99.90;;;;;;4103501;28;21656;-73
2021/08/30 03:25:52;;;;;;;;;;;17.30;99.90;;;;;;4104179;28;20036;-73
2021/08/30 03:27:54;;;;;;;16.52;9.35;;;17.30;99.90;;;;;;4103015;28;19942;-73
2021/08/30 03:29:55;;;;;;;14.93;8.93;;;17.30;99.90;;;;;;4108962;28;20069;-73
2021/08/30 03:31:56;;;;;;;16.70;10.88;;;17.30;99.90;;;;;;4111263;28;20415;-74
2021/08/30 03:33:57;;;;;;;13.50;9.20;;;17.30;99.90;;;;;;4103063;28;20038;-73
2021/08/30 03:35:58;;;;;;;14.90;10.35;;;17.20;99.90;;;;;;4109571;28;20038;-74
2021/08/30 03:38:00;;;;;;;17.23;10.75;;;17.30;99.90;;;;;;4101265;28;20035;-74
2021/08/30 03:40:02;;;;;;;12.85;9.30;;;17.20;99.90;;;;;;4098975;28;20110;-74
2021/08/30 03:42:05;;;;;;;18.85;11.20;;;17.20;99.90;;;;;;4098836;28;20027;-73
2021/08/30 03:44:09;;;;;;;14.23;9.88;;;17.20;99.90;;;;;;4101413;28;20368;-74
2021/08/30 03:46:12;;;;;;;16.55;11.50;;;17.20;99.90;;;;;;4108407;28;20049;-73
2021/08/30 03:48:14;;;;;;;13.00;9.13;;;17.20;99.90;;;;;;4103357;28;20644;-74
2021/08/30 03:50:15;;;;;;;13.60;9.20;;;17.20;99.90;;;;;;4102449;28;20114;-73
2021/08/30 03:52:17;;;;;;;15.98;10.05;;;17.20;99.90;;;;;;4102749;28;20130;-73
2021/08/30 03:54:18;;;;;;;14.50;9.53;;;17.20;99.90;;;;;;4101293;28;20118;-73
2021/08/30 03:56:19;;;;;;;13.32;9.60;;;17.30;99.90;;;;;;4109630;28;20270;-73
2021/08/30 03:58:21;;;;;;;17.17;9.73;;;17.20;99.90;;;;;;4100739;28;20039;-73
2021/08/30 04:00:22;;;;;;;14.43;10.18;;;17.30;99.90;;;;;;4100791;28;20039;-73
2021/08/30 04:02:25;;;;;;;16.10;9.65;;;17.30;99.90;;;;;;4100366;28;20040;-73
2021/08/30 04:04:26;;;;;;;15.52;10.43;;;17.30;99.90;;;;;;4102453;28;20043;-73
2021/08/30 04:06:30;;;;;;;15.95;9.43;;;17.30;99.90;;;;;;4101158;28;20459;-73
2021/08/30 04:08:31;;;;;;;18.75;11.18;;;17.30;99.90;;;;;;4109819;28;20571;-72
2021/08/30 04:10:33;;;;;;;14.40;9.98;;;17.20;99.90;;;;;;4109550;28;20046;-73
2021/08/30 04:12:34;;;;;;;17.63;10.70;;;17.20;99.90;;;;;;4101899;28;20054;-73
2021/08/30 04:14:35;;;;;;;16.80;10.73;;;17.30;99.90;;;;;;4109871;28;20038;-73
2021/08/30 04:16:35;;;;;;;14.95;9.25;;;17.20;99.90;;;;;;4102509;28;20043;-73
2021/08/30 04:18:36;;;;;;;13.80;9.65;;;17.30;99.90;;;;;;4138649;28;20545;-73
2021/08/30 04:20:36;;;;;;;14.25;10.52;;;17.30;99.90;;;;;;4106584;28;20039;-73
2021/08/30 04:22:37;;;;;;;16.98;10.70;;;17.30;99.90;;;;;;4103800;28;20051;-73
2021/08/30 04:24:38;;;;;;;18.27;11.02;;;17.30;99.90;;;;;;4102135;28;20130;-73
2021/08/30 04:26:38;;;;;;;17.30;11.77;;;17.20;99.90;;;;;;4101673;28;20031;-73
2021/08/30 04:28:39;;;;;;;16.25;10.90;;;17.30;99.90;;;;;;4105881;28;20035;-73
2021/08/30 04:30:39;;;;;;;16.75;11.35;;;17.30;99.90;;;;;;4101655;28;20039;-73
2021/08/30 04:32:40;;;;;;;15.52;10.57;;;17.30;99.90;;;;;;4101982;28;20131;-73
2021/08/30 04:34:42;;;;;;;17.15;11.38;;;17.20;99.90;;;;;;4100804;28;20507;-73
2021/08/30 04:36:42;;;;;;;14.43;9.73;;;17.20;99.90;;;;;;4102388;28;20043;-73
2021/08/30 04:38:43;;;;;;;18.90;10.93;;;17.30;99.90;;;;;;4108598;28;20043;-73
2021/08/30 04:40:44;;;;;;;16.02;10.50;;;17.20;99.90;;;;;;4100579;28;20039;-73
2021/08/30 04:42:45;;;;;;;17.85;11.60;;;17.30;99.90;;;;;;4100312;28;20114;-73
2021/08/30 04:44:45;;;;;;;16.92;10.60;;;17.20;99.90;;;;;;4102343;28;20031;-73
2021/08/30 04:46:46;;;;;;;17.60;11.35;;;17.20;99.90;;;;;;4094940;28;20093;-73
2021/08/30 04:48:47;;;;;;;25.00;11.82;;;17.20;99.90;;;;;;4106661;28;20516;-73
2021/08/30 04:50:47;;;;;;;17.02;11.85;;;17.10;99.90;;;;;;4104722;28;20387;-73
2021/08/30 04:52:48;;;;;;;16.75;11.18;;;17.10;99.90;;;;;;4106914;28;20538;-73
2021/08/30 04:54:48;;;;;;;20.50;11.77;;;17.10;99.90;;;;;;4094022;28;20042;-75
2021/08/30 04:56:49;;;;;;;15.15;10.73;;;17.10;99.90;;;;;;4106202;28;20063;-74
2021/08/30 04:58:50;;;;;;;15.80;11.25;;;17.20;99.90;;;;;;4097734;28;20114;-75
2021/08/30 05:00:51;;;;;;;16.80;11.15;;;17.20;99.90;;;;;;4099032;28;20101;-75
2021/08/30 05:02:51;;;;;;;17.60;10.25;;;17.20;99.90;;;;;;4100202;28;20050;-75
2021/08/30 05:04:55;;;;;;;15.40;10.77;;;17.20;99.90;;;;;;4098476;28;20083;-75
2021/08/30 05:06:56;;;;;;;18.33;10.70;;;17.20;99.90;;;;;;4094881;28;20126;-75
2021/08/30 05:08:56;;;;;;;18.52;11.75;;;17.20;99.90;;;;;;4097871;28;20534;-75
2021/08/30 05:10:57;;;;;;;19.88;11.15;;;17.20;99.90;;;;;;4099161;28;20049;-75
2021/08/30 05:12:58;;;;;;;16.58;10.52;;;17.20;99.90;;;;;;4096305;28;20685;-75
2021/08/30 05:14:58;;;;;;;21.27;12.95;;;17.20;99.90;;;;;;4097360;28;20035;-75
2021/08/30 05:16:59;;;;;;;20.80;11.52;;;17.20;99.90;;;;;;4097836;28;20122;-75
2021/08/30 05:18:59;;;;;;;19.38;12.00;;;17.20;99.90;;;;;;4099109;28;20491;-75
2021/08/30 05:21:00;;;;;;;17.35;10.73;;;17.20;99.90;;;;;;4119744;28;20431;-76
2021/08/30 05:23:00;;;;;;;18.13;11.50;;;17.30;99.90;;;;;;4104841;28;20969;-75
2021/08/30 05:25:01;;;;;;;19.88;12.00;;;17.20;99.90;;;;;;4100899;28;20038;-75
2021/08/30 05:27:02;;;;;;;18.63;12.18;;;17.20;99.90;;;;;;4101526;28;20039;-75
2021/08/30 05:29:03;;;;;;;19.35;12.27;;;17.20;99.90;;;;;;4099467;28;20043;-75
2021/08/30 05:31:04;;;;;;;22.77;13.02;;;17.20;99.90;;;;;;4095833;28;20043;-75
2021/08/30 05:33:04;;;;;;;23.35;11.85;;;17.20;99.90;;;;;;4101090;28;20042;-75
2021/08/30 05:35:06;;;;;;;18.75;11.38;;;17.20;99.90;;;;;;4100172;28;20039;-75
2021/08/30 05:37:07;;;;;;;17.38;11.10;;;17.30;99.90;;;;;;4102108;28;20038;-75
2021/08/30 05:39:08;;;;;;;19.48;12.25;;;17.30;99.90;;;;;;4116633;28;20034;-75
2021/08/30 05:41:08;;;;;;;17.15;11.48;;;17.30;99.90;;;;;;4098511;28;20032;-75
2021/08/30 05:43:09;;;;;;;15.80;11.48;;;17.30;99.90;;;;;;4095954;28;20102;-75
2021/08/30 05:45:10;;;;;;;18.30;11.75;;;17.30;99.90;;;;;;4098700;28;20046;-75
2021/08/30 05:47:11;;;;;;;21.98;12.20;;;17.30;99.90;;;;;;4096168;28;20027;-75
2021/08/30 05:49:11;;;;;;;17.05;11.88;;;17.30;99.90;;;;;;4098040;28;20035;-75
2021/08/30 05:51:12;;;;;;;18.05;11.10;;;17.40;99.90;;;;;;4100475;28;20050;-75
2021/08/30 05:53:12;;;;;;;18.48;11.52;;;17.40;99.90;;;;;;4092374;28;20653;-75
2021/08/30 05:55:13;;;;;;;18.83;10.77;;;17.40;99.90;;;;;;4112248;28;20078;-75
2021/08/30 05:57:14;;;;;;;23.13;13.02;;;17.40;99.90;;;;;;4099987;28;20562;-75
2021/08/30 05:59:14;;;;;;;19.38;12.45;;;17.40;99.90;;;;;;4093545;28;20170;-75
2021/08/30 06:01:15;;;;;;;24.50;13.27;;;17.40;99.90;;;;;;4095135;28;20573;-74
2021/08/30 06:03:15;;;;;;;20.67;12.50;;;17.40;99.90;;;;;;4099641;28;20037;-74
2021/08/30 06:05:16;;;;;;;21.50;13.25;;;17.40;99.90;;;;;;4095594;28;20030;-75
2021/08/30 06:07:17;;;;;;;17.40;11.70;;;17.30;99.90;;;;;;4086851;28;20043;-75
2021/08/30 06:09:36;;;;;;;18.90;13.30;;;17.40;99.90;;;;;;4081537;28;20611;-74
2021/08/30 06:11:36;;;;;;;20.02;12.18;;;17.40;99.90;;;;;;4101064;28;20035;-74
2021/08/30 06:13:37;;;;;;;20.83;13.70;;;17.40;99.90;;;;;;4093737;28;20031;-74
2021/08/30 06:15:37;;;;;;;19.15;12.32;;;17.30;99.90;;;;;;4093972;28;20134;-74
2021/08/30 06:17:38;;;;;;;20.27;12.85;;;17.40;99.90;;;;;;4094189;28;20106;-74
2021/08/30 06:19:39;;;;;;;21.67;12.88;;;17.40;99.90;;;;;;4097198;28;20042;-74
2021/08/30 06:21:39;;;;;;;23.25;12.82;;;17.40;99.90;;;;;;4098232;28;20094;-74
2021/08/30 06:23:40;;;;;;;19.40;12.00;;;17.40;99.90;;;;;;4094454;28;20694;-74
2021/08/30 06:25:40;;;;;;;18.25;12.40;;;17.40;99.90;;;;;;4097631;28;20049;-75
2021/08/30 06:27:41;;;;;;;25.42;13.32;;;17.40;99.90;;;;;;4097867;28;20049;-75
2021/08/30 06:29:44;;;;;;;19.77;12.05;;;17.40;99.90;;;;;;4087881;28;20033;-74
2021/08/30 06:31:45;;;;;;;22.15;12.45;;;17.40;99.90;;;;;;4099263;28;20035;-74
2021/08/30 06:33:45;;;;;;;23.48;13.85;;;17.40;99.90;;;;;;4094534;28;20030;-74
2021/08/30 06:35:46;;;;;;;19.95;12.70;;;17.40;99.90;;;;;;4111551;28;20058;-74
2021/08/30 06:37:47;;;;;;;22.25;11.80;;;17.40;99.90;;;;;;4099463;28;20040;-74
2021/08/30 06:39:47;;;;;;;25.23;13.85;;;17.50;99.90;;;;;;4101178;28;20027;-75
2021/08/30 06:41:48;;;;;;;25.75;12.38;;;17.40;99.90;;;;;;4095112;28;20039;-74
2021/08/30 06:43:49;;;;;;;18.60;12.85;;;17.40;99.90;;;;;;4098709;28;20030;-74
2021/08/30 06:45:50;;;;;;;21.38;12.48;;;17.50;99.90;;;;;;4093839;28;20384;-74
2021/08/30 06:47:51;;;;;;;24.80;14.35;;;17.40;99.90;;;;;;4105118;28;20035;-74
2021/08/30 06:49:51;;;;;;;18.33;12.07;;;17.40;99.90;;;;;;4097967;28;20039;-74
2021/08/30 06:51:52;;;;;;;34.03;14.05;;;17.40;99.90;;;;;;4097120;28;20037;-74
2021/08/30 06:53:53;;;;;;;26.65;13.68;;;17.40;99.90;;;;;;4098891;28;20028;-74
2021/08/30 06:55:53;;;;;;;22.63;12.70;;;17.40;99.90;;;;;;4101221;28;20049;-74
2021/08/30 06:57:54;;;;;;;18.95;12.93;;;17.50;99.90;;;;;;4101012;28;20050;-74
2021/08/30 06:59:55;;;;;;;23.85;13.68;;;17.50;99.90;;;;;;4100777;28;20035;-74
2021/08/30 07:01:55;;;;;;;22.40;14.52;;;17.50;99.90;;;;;;4097485;28;21534;-74
2021/08/30 07:03:56;;;;;;;26.75;15.82;;;17.40;99.90;;;;;;4099117;28;20035;-74
2021/08/30 07:05:56;;;;;;;20.75;12.90;;;17.40;99.90;;;;;;4096983;28;20036;-75
2021/08/30 07:07:57;;;;;;;20.10;13.15;;;17.40;99.90;;;;;;4100970;28;20078;-74
2021/08/30 07:09:58;;;;;;;22.90;13.70;;;17.50;99.90;;;;;;4098944;28;20038;-74
2021/08/30 07:11:58;;;;;;;20.60;13.77;;;17.50;99.90;;;;;;4100807;28;20062;-74
2021/08/30 07:13:59;;;;;;;17.75;12.38;;;17.50;99.90;;;;;;4092491;28;20573;-73
2021/08/30 07:16:00;;;;;;;18.23;11.93;;;17.50;99.90;;;;;;4096630;28;20057;-74
2021/08/30 07:18:00;;;;;;;19.25;11.63;;;17.60;99.90;;;;;;4099284;28;20380;-74
2021/08/30 07:20:01;;;;;;;16.88;11.32;;;17.60;99.90;;;;;;4099151;28;20052;-74
2021/08/30 07:22:03;;;;;;;20.15;12.52;;;17.60;99.90;;;;;;4098107;28;20039;-74
2021/08/30 07:24:03;;;;;;;23.08;14.15;;;17.60;99.90;;;;;;4097197;28;20043;-74
2021/08/30 07:26:04;;;;;;;17.55;12.68;;;17.60;99.90;;;;;;4100051;28;20443;-74
2021/08/30 07:28:05;;;;;;;19.58;13.05;;;17.70;99.90;;;;;;4098163;28;20050;-74
2021/08/30 07:30:06;;;;;;;20.10;12.43;;;17.70;99.90;;;;;;4094133;28;20456;-74
2021/08/30 07:32:07;;;;;;;25.42;15.40;;;17.70;99.90;;;;;;4098127;28;20115;-74
2021/08/30 07:34:08;;;;;;;25.95;14.57;;;17.70;99.90;;;;;;4101364;28;20039;-74
2021/08/30 07:36:09;;;;;;;20.38;12.95;;;17.70;99.90;;;;;;4101328;28;20122;-74
2021/08/30 07:38:09;;;;;;;20.98;13.90;;;17.70;99.90;;;;;;4103143;28;20031;-74
2021/08/30 07:40:10;;;;;;;22.30;14.60;;;17.70;99.90;;;;;;4097628;28;20178;-74
2021/08/30 07:42:11;;;;;;;21.65;14.07;;;17.70;99.90;;;;;;4097781;28;20467;-74
2021/08/30 07:44:12;;;;;;;19.15;12.25;;;17.70;99.90;;;;;;4095663;28;20027;-74
2021/08/30 07:46:12;;;;;;;21.92;13.68;;;17.80;99.90;;;;;;4098755;28;20088;-74
2021/08/30 07:48:13;;;;;;;22.38;14.43;;;17.80;99.90;;;;;;4101056;28;20042;-74
2021/08/30 07:50:14;;;;;;;22.90;14.68;;;17.80;99.90;;;;;;4087765;28;20046;-74
2021/08/30 07:52:14;;;;;;;21.42;13.80;;;17.80;99.90;;;;;;4096207;28;20037;-74
2021/08/30 07:54:15;;;;;;;17.40;12.23;;;17.90;99.90;;;;;;4095428;28;20039;-74
2021/08/30 07:56:16;;;;;;;23.75;14.40;;;17.90;99.90;;;;;;4101271;28;20126;-74
2021/08/30 07:58:16;;;;;;;23.20;14.10;;;17.90;99.90;;;;;;4100481;28;20403;-74
2021/08/30 08:00:17;;;;;;;19.08;12.27;;;17.90;99.90;;;;;;4096810;28;20032;-74
2021/08/30 08:02:18;;;;;;;21.20;13.88;;;17.90;99.90;;;;;;4099387;28;20082;-74
2021/08/30 08:04:18;;;;;;;17.70;12.10;;;17.90;99.90;;;;;;4100042;28;20042;-73
2021/08/30 08:06:20;;;;;;;21.38;13.45;;;18.00;99.90;;;;;;4120245;28;20118;-74
2021/08/30 08:08:21;;;;;;;19.60;12.52;;;18.00;99.90;;;;;;4121853;28;20038;-74
2021/08/30 08:10:21;;;;;;;20.25;14.60;;;18.10;99.90;;;;;;4100100;28;20059;-74
2021/08/30 08:12:22;;;;;;;25.90;13.88;;;18.00;99.90;;;;;;4100472;28;20525;-74
2021/08/30 08:14:23;;;;;;;22.48;14.40;;;18.00;99.90;;;;;;4101357;28;20097;-74
2021/08/30 08:16:23;;;;;;;21.80;12.88;;;18.10;99.90;;;;;;4094182;28;20043;-74
2021/08/30 08:18:24;;;;;;;17.95;13.55;;;18.10;99.90;;;;;;4099188;28;20352;-74
2021/08/30 08:20:25;;;;;;;27.88;14.45;;;18.10;99.90;;;;;;4096030;28;20106;-74
2021/08/30 08:22:26;;;;;;;17.83;12.50;;;18.00;99.90;;;;;;4101106;28;20055;-74
2021/08/30 08:24:28;;;;;;;17.88;11.38;;;18.10;99.90;;;;;;4104219;28;20063;-73
2021/08/30 08:26:29;;;;;;;17.85;12.60;;;18.10;99.90;;;;;;4096957;28;20055;-74
2021/08/30 08:28:30;;;;;;;20.92;13.45;;;18.10;99.90;;;;;;4104992;28;20038;-74
2021/08/30 08:30:31;;;;;;;21.85;12.68;;;18.10;99.90;;;;;;4103488;28;20622;-74
2021/08/30 08:32:31;;;;;;;20.25;13.15;;;18.10;99.90;;;;;;4104969;28;20039;-74
2021/08/30 08:34:32;;;;;;;16.75;12.05;;;18.10;99.90;;;;;;4102975;28;20035;-74
2021/08/30 08:36:32;;;;;;;18.58;13.00;;;18.10;99.90;;;;;;4101861;28;20067;-74
2021/08/30 08:38:34;;;;;;;29.52;13.02;;;18.10;99.90;;;;;;4104820;28;20447;-75
2021/08/30 08:40:35;;;;;;;15.25;10.77;;;18.10;99.90;;;;;;4105757;28;20623;-74
2021/08/30 08:42:38;;;;;;;16.83;10.85;;;18.10;99.90;;;;;;4107962;28;20065;-74
2021/08/30 08:44:39;;;;;;;18.60;11.57;;;18.20;99.90;;;;;;4104498;28;20034;-74
2021/08/30 08:46:39;;;;;;;16.92;12.02;;;18.20;99.90;;;;;;4101924;28;20757;-74
2021/08/30 08:48:41;;;;;;;22.77;13.30;;;18.20;99.90;;;;;;4103174;28;20034;-74
2021/08/30 08:50:44;;;;;;;17.70;12.40;;;18.20;99.90;;;;;;4106212;28;20050;-74
2021/08/30 08:52:44;;;;;;;16.83;11.07;;;18.30;99.90;;;;;;4101058;28;20118;-74
2021/08/30 08:54:45;;;;;;;19.58;13.23;;;18.30;99.90;;;;;;4105049;28;20030;-74
2021/08/30 08:56:46;;;;;;;16.02;10.85;;;18.30;99.90;;;;;;4106238;28;20039;-74
2021/08/30 08:58:46;;;;;;;20.92;11.80;;;18.30;99.90;;;;;;4101572;28;20039;-74
2021/08/30 09:01:11;;;;;;;14.90;11.05;;;18.40;99.90;;;;;;4100285;28;20045;-74
2021/08/30 09:03:17;;;;;;;19.20;12.77;;;18.40;99.90;;;;;;4102340;28;20043;-74
2021/08/30 09:05:25;;;;;;;21.17;12.57;;;18.50;99.90;;;;;;4102289;28;20031;-74
2021/08/30 09:07:41;;;;;;;18.77;12.02;;;18.50;99.90;;;;;;4101680;28;20118;-73
2021/08/30 09:09:42;;;;;;;16.25;11.07;;;18.50;99.90;;;;;;4099682;28;20438;-74
2021/08/30 09:11:53;;;;;;;19.15;12.55;;;18.50;99.90;;;;;;4110634;28;20034;-74
2021/08/30 09:13:56;;;;;;;15.98;11.50;;;18.50;99.90;;;;;;4109240;28;20038;-74
2021/08/30 09:15:58;;;;;;;14.50;10.98;;;18.50;99.90;;;;;;4102931;28;20063;-74
2021/08/30 09:17:58;;;;;;;20.25;12.65;;;18.60;99.90;;;;;;4100856;28;20080;-74
2021/08/30 09:19:59;;;;;;;16.70;12.32;;;18.60;99.90;;;;;;4098477;28;20122;-74
2021/08/30 09:22:04;;;;;;;15.88;10.85;;;18.70;99.90;;;;;;4100965;28;20044;-74
2021/08/30 09:24:14;;;;;;;18.08;11.80;;;18.70;99.90;;;;;;4107217;28;20058;-74
2021/08/30 09:26:19;;;;;;;20.15;13.27;;;18.80;99.90;;;;;;4106449;28;20031;-74
2021/08/30 09:28:33;;;;;;;19.88;12.85;;;18.80;99.90;;;;;;4104969;28;20034;-74
2021/08/30 09:30:35;;;;;;;15.85;10.80;;;18.90;99.90;;;;;;4101947;28;20123;-74
2021/08/30 09:32:36;;;;;;;19.15;12.75;;;18.90;99.90;;;;;;4108898;28;20452;-74
2021/08/30 09:34:37;;;;;;;18.60;12.18;;;19.00;99.90;;;;;;4094857;28;20096;-74
2021/08/30 09:36:57;;;;;;;15.27;10.40;;;19.10;99.90;;;;;;4071387;28;20046;-75
2021/08/30 09:39:18;;;;;;;14.65;10.52;;;19.20;99.90;;;;;;4095102;28;20043;-74
2021/08/30 09:54:18;;;;;;;13.63;10.07;;;19.40;99.90;;;;;;4084236;28;20062;-71
2021/08/30 09:56:39;;;;;;;15.50;10.70;;;19.50;99.90;;;;;;4046717;28;20047;-71
2021/08/30 09:59:00;;;;;;;14.98;10.07;;;19.50;99.90;;;;;;4079628;28;20054;-71
2021/08/30 10:01:21;;;;;;;14.75;10.75;;;19.50;99.90;;;;;;4067510;28;20043;-71
2021/08/30 10:03:43;;;;;;;15.73;10.85;;;19.60;99.90;;;;;;4067549;28;20043;-71
2021/08/30 10:06:07;;;;;;;16.63;10.10;;;19.70;99.90;;;;;;4065496;28;20051;-71
2021/08/30 10:08:28;;;;;;;12.93;9.38;;;19.70;99.90;;;;;;4021305;28;20047;-71
2021/08/30 10:10:29;;;;;;;17.30;10.82;;;19.70;99.90;;;;;;4093391;28;20039;-71
2021/08/30 10:12:30;;;;;;;16.33;10.38;;;19.70;99.90;;;;;;4094514;28;20039;-71
2021/08/30 10:14:31;;;;;;;13.38;10.50;;;19.70;99.90;;;;;;4087666;28;20035;-71
2021/08/30 10:16:34;;;;;;;16.98;9.93;;;19.70;99.90;;;;;;4091909;28;20047;-71
2021/08/30 10:18:35;;;;;;;14.52;9.82;;;19.70;99.90;;;;;;4091954;28;20758;-71
2021/08/30 10:20:40;;;;;;;12.88;8.90;;;19.70;99.90;;;;;;4091616;28;20038;-71
2021/08/30 10:22:40;;;;;;;14.43;9.57;;;19.70;99.90;;;;;;4092937;28;20035;-71
2021/08/30 10:24:41;;;;;;;12.65;9.02;;;19.80;99.90;;;;;;4086641;28;20535;-71
2021/08/30 10:26:44;;;;;;;13.52;9.57;;;19.80;99.90;;;;;;4068072;29;20269;-71
2021/08/30 10:28:46;;;;;;;13.77;9.15;;;19.80;99.90;;;;;;4069633;29;20074;-71
2021/08/30 10:30:51;;;;;;;;;;;19.90;99.90;;;;;;4069443;28;20083;-71
2021/08/30 10:32:58;;;;;;;14.02;9.25;;;19.90;99.90;;;;;;4068260;29;19986;-71
2021/08/30 10:34:58;;;;;;;15.63;8.88;;;20.00;99.90;;;;;;4063871;29;20039;-71
2021/08/30 10:37:01;;;;;;;12.23;7.93;;;20.00;99.90;;;;;;4072095;29;20036;-71
2021/08/30 10:39:07;;;;;;;17.02;10.32;;;20.00;99.90;;;;;;4066077;29;20547;-71
2021/08/30 10:41:18;;;;;;;10.82;8.82;;;20.00;99.90;;;;;;4066344;29;20052;-71